• Join FlightAware (Why Join?)
  • Login
  • US Flag GB Flag 
18:13 EDT


 

Airport Tracker/Info


-or-


 

Live Flight TrackerFlight Track Log ✈ ELJ309 ✈ 05-May-2013 ✈ KCLE - KGSO

Flight Track Log - Related Links

Times and Time Zones

All times are in EDT time to prevent confusion due to time zone crossing. See the ELJ309 flight status page for this flight to view local times or setup timezone preferences in your user account.

Time Position Orientation Groundspeed Altitude Reporting Facility
EDT Latitude Longitude Course Direction KTS MPH feet Rate Location/Type
22:30 41.3714 -81.6317 289° West 93 107 3,000  Level Cleveland Center
22:32 41.2465 -81.5885 165° South  Level Estimated
22:39 40.6503 -81.3845 165° South  Level Estimated
22:40 40.5651 -81.3557 166° South  Level Estimated
22:41 40.4799 -81.3269 166° South  Level Estimated
22:42 40.3947 -81.2982 166° South  Level Estimated
22:43 40.3095 -81.2696 166° South  Level Estimated
22:44 40.2243 -81.2410 166° South  Level Estimated
22:45 40.1390 -81.2125 166° South  Level Estimated
22:46 40.0538 -81.1841 166° South  Level Estimated
22:47 39.9685 -81.1558 166° South  Level Estimated
22:48 39.8833 -81.1275 166° South  Level Estimated
22:49 39.7980 -81.0994 166° South  Level Estimated
22:50 39.7127 -81.0712 166° South  Level Estimated
22:51 39.6275 -81.0432 166° South  Level Estimated
22:52 39.5422 -81.0152 166° South  Level Estimated
22:53 39.4569 -80.9873 166° South  Level Estimated
22:54 39.3716 -80.9594 166° South  Level Estimated
22:55 39.2863 -80.9316 166° South  Level Estimated
22:56 39.2010 -80.9039 166° South  Level Estimated
22:57 39.1157 -80.8763 166° South  Level Estimated
22:58 39.0303 -80.8487 166° South  Level Estimated
22:59 38.9450 -80.8212 166° South  Level Estimated
23:00 38.8597 -80.7937 166° South  Level Estimated
23:01 38.7743 -80.7664 166° South  Level Estimated
23:02 38.6890 -80.7391 166° South  Level Estimated
23:03 38.6036 -80.7118 166° South  Level Estimated
23:04 38.5183 -80.6846 166° South  Level Estimated
23:05 38.4329 -80.6575 166° South  Level Estimated
23:06 38.3475 -80.6304 166° South  Level Estimated
23:07 38.2621 -80.6035 166° South  Level Estimated
23:08 38.1768 -80.5765 166° South  Level Estimated
23:09 38.0914 -80.5497 166° South  Level Estimated
23:10 38.0060 -80.5229 166° South  Level Estimated
23:11 37.9206 -80.4961 166° South  Level Estimated
23:12 37.8352 -80.4694 166° South  Level Estimated
23:13 37.7497 -80.4428 166° South  Level Estimated
23:14 37.6643 -80.4163 166° South  Level Estimated
23:15 37.5789 -80.3898 166° South  Level Estimated
23:16 37.4935 -80.3633 166° South  Level Estimated
23:17 37.4080 -80.3370 166° South  Level Estimated
23:18 37.3226 -80.3107 166° South  Level Estimated
23:19 37.2371 -80.2844 166° South  Level Estimated
23:20 37.1517 -80.2582 166° South  Level Estimated
23:21 37.0662 -80.2321 166° South  Level Estimated
23:22 36.9807 -80.2060 166° South  Level Estimated
23:23 36.8953 -80.1800 166° South  Level Estimated
23:24 36.8098 -80.1540 166° South  Level Estimated
23:25 36.7243 -80.1281 166° South  Level Estimated
23:26 36.6388 -80.1023 166° South  Level Estimated
23:27 36.5533 -80.0765 166° South  Level Estimated
23:28 36.4678 -80.0508 166° South  Level Estimated
23:29 36.3823 -80.0251 166° South  Level Estimated
23:30 36.2968 -79.9995 166° South  Level Estimated
23:31 36.2113 -79.9739 166° South  Level Estimated
23:32 36.1257 -79.9484 166° South  Level Estimated
23:33 36.1013 -79.9411 166° South  Level Estimated
23:34 36.1013 -79.9411 214° Southwest  Level Estimated
23:35 36.1013 -79.9411 214° Southwest  Level Estimated
23:36 36.1013 -79.9411 214° Southwest  Level Estimated
23:37 36.1013 -79.9411 214° Southwest  Level Estimated
23:38 36.1013 -79.9411 214° Southwest  Level Estimated
23:39 36.1013 -79.9411 214° Southwest  Level Estimated
23:40 36.1013 -79.9411 214° Southwest  Level Estimated
23:41 36.1013 -79.9411 214° Southwest  Level Estimated
23:42 36.1013 -79.9411 214° Southwest  Level Estimated
23:43 36.1013 -79.9411 214° Southwest  Level Estimated
23:44 36.1013 -79.9411 214° Southwest  Level Estimated
23:45 36.1013 -79.9411 214° Southwest  Level Estimated
23:46 36.1013 -79.9411 214° Southwest  Level Estimated
23:47 36.1013 -79.9411 214° Southwest  Level Estimated
23:48 36.1013 -79.9411 214° Southwest  Level Estimated
23:49 36.1013 -79.9411 214° Southwest  Level Estimated
23:50 36.1013 -79.9411 214° Southwest  Level Estimated
23:51 36.1013 -79.9411 214° Southwest  Level Estimated
23:52 36.1013 -79.9411 214° Southwest  Level Estimated
23:53 36.1013 -79.9411 214° Southwest  Level Estimated
23:54 36.1013 -79.9411 214° Southwest  Level Estimated
23:55 36.1013 -79.9411 214° Southwest  Level Estimated
23:56 36.1013 -79.9411 214° Southwest  Level Estimated